Time;durP1;ratioP1;P1;durP2;ratioP2;P2;SDS_P1;SDS_P2;PMS_P1;PMS_P2;Temp;Humidity;BMP_temperature;BMP_pressure;BME280_temperature;BME280_humidity;BME280_pressure;Samples;Min_cycle;Max_cycle;Signal;HPM_P1;HPM_P2
2022/01/09 00:01:26;;;;;;;;;;;4.10;99.90;;;;;;5030720;28;19909;-76
2022/01/09 00:03:52;;;;;;;;;;;4.10;99.90;;;;;;5032233;28;19966;-76
2022/01/09 00:06:18;;;;;;;;;;;4.20;99.90;;;;;;5025920;28;19920;-76
2022/01/09 00:08:44;;;;;;;;;;;4.10;99.90;;;;;;5046619;28;19913;-76
2022/01/09 00:11:18;;;;;;;;;;;4.10;99.90;;;;;;5046166;28;20316;-76
2022/01/09 00:13:45;;;;;;;;;;;4.20;99.90;;;;;;5045969;28;19924;-75
2022/01/09 00:16:10;;;;;;;;;;;4.20;99.90;;;;;;5047492;28;19909;-76
2022/01/09 00:18:36;;;;;;;;;;;4.10;99.90;;;;;;5046044;28;19916;-74
2022/01/09 00:21:05;;;;;;;;;;;4.20;99.90;;;;;;5047573;28;19913;-75
2022/01/09 00:23:32;;;;;;;;;;;4.20;99.90;;;;;;5047136;28;19909;-76
2022/01/09 00:25:58;;;;;;;;;;;4.20;99.90;;;;;;5047070;28;19916;-77
2022/01/09 00:28:24;;;;;;;;;;;4.20;99.90;;;;;;5045959;28;20289;-77
2022/01/09 00:30:49;;;;;;;;;;;4.20;99.90;;;;;;5029400;28;19909;-73
2022/01/09 00:33:15;;;;;;;;;;;4.20;99.90;;;;;;5046820;28;19940;-76
2022/01/09 00:35:40;;;;;;;;;;;4.20;99.90;;;;;;5029464;28;19964;-75
2022/01/09 00:38:06;;;;;;;;;;;4.20;99.90;;;;;;5046962;28;19916;-76
2022/01/09 00:40:31;;;;;;;;;;;4.20;99.90;;;;;;5046942;28;19913;-76
2022/01/09 00:42:57;;;;;;;;;;;4.20;99.90;;;;;;5029043;28;20345;-76
2022/01/09 00:45:22;;;;;;;;;;;4.30;99.90;;;;;;5046995;28;19909;-76
2022/01/09 00:47:48;;;;;;;;;;;4.20;99.90;;;;;;5046808;28;20365;-76
2022/01/09 00:50:14;;;;;;;;;;;4.30;99.90;;;;;;5046899;28;19909;-76
2022/01/09 00:52:40;;;;;;;;;;;4.30;99.90;;;;;;5046543;28;19913;-76
2022/01/09 00:55:06;;;;;;;;;;;4.20;99.90;;;;;;5045808;28;19915;-76
2022/01/09 00:57:31;;;;;;;;;;;4.30;99.90;;;;;;5046405;28;19916;-75
2022/01/09 00:59:57;;;;;;;;;;;4.20;99.90;;;;;;5046488;28;19917;-75
2022/01/09 01:02:22;;;;;;;;;;;4.20;99.90;;;;;;5028807;28;19916;-75
2022/01/09 01:04:51;;;;;;;;;;;4.20;99.90;;;;;;5046158;28;19909;-75
2022/01/09 01:07:20;;;;;;;;;;;4.20;99.90;;;;;;5046514;28;19909;-75
2022/01/09 01:09:45;;;;;;;;;;;4.20;99.90;;;;;;5046418;28;19952;-75
2022/01/09 01:12:11;;;;;;;;;;;4.20;99.90;;;;;;5046256;28;20353;-75
2022/01/09 01:14:37;;;;;;;;;;;4.20;99.90;;;;;;5046157;28;19936;-75
2022/01/09 01:17:03;;;;;;;;;;;4.20;99.90;;;;;;5046285;28;20023;-75
2022/01/09 01:19:28;;;;;;;;;;;4.20;99.90;;;;;;5045118;28;19916;-75
2022/01/09 01:21:54;;;;;;;;;;;4.20;99.90;;;;;;5046181;28;19909;-75
2022/01/09 01:24:21;;;;;;;;;;;4.30;99.90;;;;;;5046113;28;19970;-75
2022/01/09 01:26:47;;;;;;;;;;;4.30;99.90;;;;;;5045970;28;19909;-75
2022/01/09 01:29:12;;;;;;;;;;;4.30;99.90;;;;;;5044731;28;20008;-75
2022/01/09 01:31:38;;;;;;;;;;;4.40;99.90;;;;;;5028267;28;19909;-74
2022/01/09 01:34:04;;;;;;;;;;;4.40;99.90;;;;;;5045750;28;19954;-75
2022/01/09 01:36:29;;;;;;;;;;;4.40;99.90;;;;;;5028341;28;19976;-74
2022/01/09 01:38:54;;;;;;;;;;;4.40;99.90;;;;;;5028266;28;19932;-75
2022/01/09 01:41:20;;;;;;;;;;;4.50;99.90;;;;;;5045788;28;19931;-74
2022/01/09 01:43:46;;;;;;;;;;;4.50;99.90;;;;;;5028027;28;19916;-74
2022/01/09 01:46:12;;;;;;;;;;;4.60;99.90;;;;;;5045945;28;19917;-74
2022/01/09 01:48:37;;;;;;;;;;;4.60;99.90;;;;;;5028107;28;19909;-75
2022/01/09 01:51:03;;;;;;;;;;;4.60;99.90;;;;;;5045872;28;20328;-74
2022/01/09 01:53:29;;;;;;;;;;;4.70;99.90;;;;;;5045554;28;19917;-74
2022/01/09 01:55:56;;;;;;;;;;;4.80;99.90;;;;;;5011497;28;19955;-74
2022/01/09 01:58:23;;;;;;;;;;;4.80;99.90;;;;;;5011158;28;19952;-75
2022/01/09 02:00:48;;;;;;;;;;;4.90;99.90;;;;;;5028040;28;19917;-75
2022/01/09 02:03:14;;;;;;;;;;;4.90;99.90;;;;;;5027920;28;19909;-74
2022/01/09 02:05:43;;;;;;;;;;;5.00;99.90;;;;;;5036716;28;19931;-74
2022/01/09 02:08:09;;;;;;;;;;;5.00;99.90;;;;;;5032032;28;19913;-74
2022/01/09 02:10:38;;;;;;;;;;;5.10;99.90;;;;;;5048420;28;19952;-74
2022/01/09 02:13:04;;;;;;;;;;;5.20;99.90;;;;;;5031571;28;19917;-73
2022/01/09 02:15:38;;;;;;;;;;;5.20;99.90;;;;;;5049679;28;19909;-74
2022/01/09 02:18:06;;;;;;;;;;;5.20;99.90;;;;;;5049740;28;19952;-73
2022/01/09 02:20:31;;;;;;;;;;;5.20;99.90;;;;;;5048351;28;19948;-74
2022/01/09 02:22:57;;;;;;;;;;;5.30;99.90;;;;;;5049491;28;19909;-74
2022/01/09 02:25:23;;;;;;;;;;;5.30;99.90;;;;;;5049143;28;19923;-74
2022/01/09 02:27:49;;;;;;;;;;;5.30;99.90;;;;;;5049239;28;19964;-74
2022/01/09 02:30:14;;;;;;;;;;;5.30;99.90;;;;;;5049333;28;19932;-74
2022/01/09 02:32:40;;;;;;;;;;;5.30;99.90;;;;;;5048984;28;19917;-74
2022/01/09 02:35:05;;;;;;;;;;;5.30;99.90;;;;;;5049265;28;19980;-74
2022/01/09 02:37:31;;;;;;;;;;;5.30;99.90;;;;;;5049389;28;20010;-74
2022/01/09 02:39:56;;;;;;;;;;;5.40;99.90;;;;;;5031390;28;19909;-74
2022/01/09 02:42:24;;;;;;;;;;;5.40;99.90;;;;;;5049007;28;19936;-74
2022/01/09 02:44:51;;;;;;;;;;;5.40;99.90;;;;;;5048848;28;20067;-74
2022/01/09 02:47:17;;;;;;;;;;;5.40;99.90;;;;;;5031253;28;19916;-75
2022/01/09 02:49:47;;;;;;;;;;;5.60;99.90;;;;;;5049073;28;20008;-74
2022/01/09 02:52:26;;;;;;;;;;;5.60;99.90;;;;;;5031017;28;19909;-75
2022/01/09 02:57:36;;;;;;;;;;;5.80;99.90;;;;;;5048828;28;19909;-74
2022/01/09 03:00:03;;;;;;;;;;;5.90;99.90;;;;;;5030763;28;19921;-75
2022/01/09 03:02:29;;;;;;;;;;;6.00;99.90;;;;;;5048867;28;19909;-75
2022/01/09 03:04:54;;;;;;;;;;;6.00;99.90;;;;;;5048438;28;19909;-75
2022/01/09 03:07:20;;;;;;;;;;;6.10;99.90;;;;;;5048642;28;19909;-75
2022/01/09 03:09:45;;;;;;;;;;;6.10;99.90;;;;;;5048713;28;19916;-75
2022/01/09 03:12:12;;;;;;;;;;;6.10;99.90;;;;;;5048549;28;19909;-75
2022/01/09 03:14:37;;;;;;;;;;;6.10;99.90;;;;;;5047139;28;19909;-75
2022/01/09 03:17:03;;;;;;;;;;;6.10;99.90;;;;;;5047566;28;19909;-75
2022/01/09 03:19:29;;;;;;;;;;;6.10;99.90;;;;;;5047255;28;19963;-73
2022/01/09 03:21:54;;;;;;;;;;;6.10;99.90;;;;;;5048208;28;19909;-75
2022/01/09 03:24:20;;;;;;;;;;;6.00;99.90;;;;;;5048375;28;19915;-74
2022/01/09 03:26:45;;;;;;;;;;;5.90;99.90;;;;;;5048041;28;20003;-74
2022/01/09 03:29:11;;;;;;;;;;;6.00;99.90;;;;;;5048254;28;19937;-74
2022/01/09 03:31:36;;;;;;;;;;;6.10;99.90;;;;;;5048073;28;19916;-75
2022/01/09 03:34:02;;;;;;;;;;;6.00;99.90;;;;;;5033358;28;19921;-75
2022/01/09 03:36:27;;;;;;;;;;;6.00;99.90;;;;;;5048107;28;20163;-71
2022/01/09 03:38:53;;;;;;;;;;;5.90;99.90;;;;;;5048271;28;19936;-72
2022/01/09 03:41:18;;;;;;;;;;;5.90;99.90;;;;;;5030147;28;19909;-74
2022/01/09 03:43:44;;;;;;;;;;;5.90;99.90;;;;;;5030018;28;20384;-74
2022/01/09 03:46:09;;;;;;;;;;;5.90;99.90;;;;;;5030015;28;19944;-75
2022/01/09 03:48:35;;;;;;;;;;;5.90;99.90;;;;;;5047896;28;19908;-75
2022/01/09 03:51:02;;;;;;;;;;;5.90;99.90;;;;;;5013655;28;19916;-74
2022/01/09 03:53:28;;;;;;;;;;;5.90;99.90;;;;;;5047698;28;19920;-74
2022/01/09 03:55:55;;;;;;;;;;;5.90;99.90;;;;;;5047639;28;19960;-74
2022/01/09 03:58:20;;;;;;;;;;;5.90;99.90;;;;;;5029921;28;19912;-74
2022/01/09 04:00:46;;;;;;;;;;;5.90;99.90;;;;;;5047634;28;20389;-74
2022/01/09 04:03:11;;;;;;;;;;;5.90;99.90;;;;;;5029878;28;19931;-74
2022/01/09 04:05:37;;;;;;;;;;;5.90;99.90;;;;;;5047562;28;20376;-73
2022/01/09 04:08:02;;;;;;;;;;;6.00;99.90;;;;;;5046390;28;19920;-74
2022/01/09 04:10:29;;;;;;;;;;;5.90;99.90;;;;;;5047554;28;19989;-75
2022/01/09 04:12:59;;;;;;;;;;;5.90;99.90;;;;;;5046120;28;19917;-75
2022/01/09 04:15:25;;;;;;;;;;;5.90;99.90;;;;;;5047410;28;19909;-74
2022/01/09 04:17:55;;;;;;;;;;;5.80;99.90;;;;;;5047414;28;19944;-74
2022/01/09 04:20:21;;;;;;;;;;;5.80;99.90;;;;;;5046306;28;19910;-74
2022/01/09 04:22:48;;;;;;;;;;;5.80;99.90;;;;;;5047232;28;19916;-74
2022/01/09 04:25:14;;;;;;;;;;;5.80;99.90;;;;;;5047372;28;19931;-75
2022/01/09 04:27:39;;;;;;;;;;;5.80;99.90;;;;;;5047243;28;19909;-74
2022/01/09 04:30:05;;;;;;;;;;;5.80;99.90;;;;;;5045873;28;20378;-74
2022/01/09 04:32:31;;;;;;;;;;;5.80;99.90;;;;;;5046765;28;20499;-74
2022/01/09 04:34:56;;;;;;;;;;;5.90;99.90;;;;;;5047138;28;19911;-75
2022/01/09 04:37:23;;;;;;;;;;;5.80;99.90;;;;;;5029375;28;19966;-74
2022/01/09 04:39:50;;;;;;;;;;;5.80;99.90;;;;;;5047043;28;20424;-75
2022/01/09 04:42:16;;;;;;;;;;;5.90;99.90;;;;;;5046794;28;19916;-74
2022/01/09 04:44:42;;;;;;;;;;;5.80;99.90;;;;;;5046897;28;19908;-74
2022/01/09 04:47:14;;;;;;;;;;;5.80;99.90;;;;;;5046760;28;19931;-74
2022/01/09 04:49:43;;;;;;;;;;;5.80;99.90;;;;;;5047078;28;20243;-74
2022/01/09 04:52:12;;;;;;;;;;;5.80;99.90;;;;;;5046532;28;19912;-75
2022/01/09 04:54:37;;;;;;;;;;;5.90;99.90;;;;;;5029042;28;19920;-75
2022/01/09 04:57:03;;;;;;;;;;;5.80;99.90;;;;;;5047126;28;19909;-74
2022/01/09 04:59:29;;;;;;;;;;;5.80;99.90;;;;;;5046508;28;19917;-74
2022/01/09 05:01:54;;;;;;;;;;;5.80;99.90;;;;;;5044908;28;19967;-75
2022/01/09 05:04:20;;;;;;;;;;;5.80;99.90;;;;;;5046383;28;19995;-75
2022/01/09 05:06:46;;;;;;;;;;;5.80;99.90;;;;;;5044437;28;20324;-75
2022/01/09 05:09:11;;;;;;;;;;;5.80;99.90;;;;;;5045345;28;19940;-74
2022/01/09 05:11:37;;;;;;;;;;;5.70;99.90;;;;;;5045199;28;19915;-75
2022/01/09 05:14:03;;;;;;;;;;;5.60;99.90;;;;;;5046241;28;19921;-74
2022/01/09 05:16:28;;;;;;;;;;;5.60;99.90;;;;;;5045158;28;19909;-75
2022/01/09 05:19:01;;;;;;;;;;;5.60;99.90;;;;;;5046335;28;19913;-75
2022/01/09 05:21:27;;;;;;;;;;;5.70;99.90;;;;;;5045227;28;19931;-75
2022/01/09 05:23:52;;;;;;;;;;;5.60;99.90;;;;;;5044832;28;20377;-74
2022/01/09 05:26:18;;;;;;;;;;;5.60;99.90;;;;;;5046121;28;19908;-74
2022/01/09 05:28:43;;;;;;;;;;;5.60;99.90;;;;;;5044842;28;19952;-74
2022/01/09 05:31:09;;;;;;;;;;;5.60;99.90;;;;;;5045012;28;19909;-75
2022/01/09 05:33:34;;;;;;;;;;;5.60;99.90;;;;;;5034911;28;19917;-75
2022/01/09 05:36:00;;;;;;;;;;;5.50;99.90;;;;;;5046281;28;19909;-74
2022/01/09 05:38:25;;;;;;;;;;;5.60;99.90;;;;;;5028454;28;20268;-75
2022/01/09 05:40:51;;;;;;;;;;;5.70;99.90;;;;;;5045865;28;19909;-74
2022/01/09 05:43:17;;;;;;;;;;;5.60;99.90;;;;;;5045838;28;19909;-75
2022/01/09 05:45:43;;;;;;;;;;;5.60;99.90;;;;;;5028387;28;19913;-75
2022/01/09 05:48:08;;;;;;;;;;;5.50;99.90;;;;;;5045819;28;20427;-75
2022/01/09 05:50:34;;;;;;;;;;;5.50;99.90;;;;;;5046064;28;19909;-74
2022/01/09 05:53:00;;;;;;;;;;;5.50;99.90;;;;;;5027851;28;19913;-75
2022/01/09 05:55:45;;;;;;;;;;;5.50;99.90;;;;;;5045817;28;19909;-74
2022/01/09 05:58:11;;;;;;;;;;;5.50;99.90;;;;;;4951958;28;19910;-74
2022/01/09 06:00:36;;;;;;;;;;;5.50;99.90;;;;;;4984486;28;20010;-75
2022/01/09 06:03:03;;;;;;;;;;;5.40;99.90;;;;;;4984132;28;19918;-75
2022/01/09 06:05:28;;;;;;;;;;;5.30;99.90;;;;;;4992995;28;19921;-75
2022/01/09 06:07:54;;;;;;;;;;;5.30;99.90;;;;;;5003922;28;19910;-75
2022/01/09 06:10:20;;;;;;;;;;;5.20;99.90;;;;;;5003912;28;19910;-75
2022/01/09 06:12:45;;;;;;;;;;;5.20;99.90;;;;;;5003782;28;19917;-75
2022/01/09 06:15:11;;;;;;;;;;;5.20;99.90;;;;;;5003840;28;19910;-75
2022/01/09 06:17:37;;;;;;;;;;;5.20;99.90;;;;;;5003739;28;19933;-75
2022/01/09 06:20:03;;;;;;;;;;;5.20;99.90;;;;;;5003825;28;19914;-75
2022/01/09 06:22:29;;;;;;;;;;;5.20;99.90;;;;;;5003661;28;19920;-75
2022/01/09 06:24:54;;;;;;;;;;;5.20;99.90;;;;;;5003613;28;19910;-75
2022/01/09 06:27:21;;;;;;;;;;;5.20;99.90;;;;;;4987289;28;19910;-75
2022/01/09 06:29:47;;;;;;;;;;;5.20;99.90;;;;;;5003511;28;19981;-75
2022/01/09 06:32:12;;;;;;;;;;;5.20;99.90;;;;;;4985601;28;19914;-76
2022/01/09 06:34:38;;;;;;;;;;;5.20;99.90;;;;;;4961573;28;20253;-75
2022/01/09 06:37:03;;;;;;;;;;;5.20;99.90;;;;;;5024589;28;19964;-75
2022/01/09 06:39:29;;;;;;;;;;;5.10;99.90;;;;;;5025738;28;19915;-75
2022/01/09 06:41:55;;;;;;;;;;;5.10;99.90;;;;;;5025509;28;19910;-76
2022/01/09 06:44:20;;;;;;;;;;;5.10;99.90;;;;;;5007814;28;19940;-75
2022/01/09 06:46:46;;;;;;;;;;;5.10;99.90;;;;;;5025628;28;19979;-76
2022/01/09 06:49:11;;;;;;;;;;;5.20;99.90;;;;;;5024820;28;19979;-75
2022/01/09 06:51:37;;;;;;;;;;;5.30;99.90;;;;;;5027334;28;19909;-76
2022/01/09 06:54:03;;;;;;;;;;;5.10;99.90;;;;;;5045562;28;19924;-77
2022/01/09 06:56:28;;;;;;;;;;;5.20;99.90;;;;;;5048967;28;19909;-76
2022/01/09 06:58:54;;;;;;;;;;;5.20;99.90;;;;;;5048567;28;19913;-76
2022/01/09 07:01:20;;;;;;;;;;;5.10;99.90;;;;;;5048639;28;19909;-75
2022/01/09 07:03:45;;;;;;;;;;;5.10;99.90;;;;;;5030891;28;19940;-75
2022/01/09 07:06:11;;;;;;;;;;;5.10;99.90;;;;;;5048868;28;19909;-75
2022/01/09 07:08:37;;;;;;;;;;;5.00;99.90;;;;;;5050010;28;19909;-75
2022/01/09 07:11:03;;;;;;;;;;;4.90;99.90;;;;;;5047370;28;20258;-75
2022/01/09 07:13:28;;;;;;;;;;;4.80;99.90;;;;;;5048259;28;19932;-75
2022/01/09 07:15:54;;;;;;;;;;;4.80;99.90;;;;;;5048179;28;19928;-75
2022/01/09 07:18:19;;;;;;;;;;;4.90;99.90;;;;;;5048431;28;19913;-75
2022/01/09 07:20:45;;;;;;;;;;;4.80;99.90;;;;;;5013964;28;19909;-75
2022/01/09 07:23:11;;;;;;;;;;;4.90;99.90;;;;;;5030132;28;19976;-75
2022/01/09 07:25:36;;;;;;;;;;;4.90;99.90;;;;;;5013857;28;20003;-75
2022/01/09 07:28:02;;;;;;;;;;;4.80;99.90;;;;;;5048245;28;20071;-78
2022/01/09 07:30:28;;;;;;;;;;;4.80;99.90;;;;;;5048135;28;19909;-75
2022/01/09 07:32:54;;;;;;;;;;;4.70;99.90;;;;;;5029939;28;20208;-76
2022/01/09 07:35:20;;;;;;;;;;;4.70;99.90;;;;;;5047928;28;19909;-76
2022/01/09 07:37:45;;;;;;;;;;;4.70;99.90;;;;;;5047692;28;19955;-75
2022/01/09 07:40:11;;;;;;;;;;;4.60;99.90;;;;;;5047933;28;19909;-74
2022/01/09 07:42:37;;;;;;;;;;;4.70;99.90;;;;;;5047635;28;19916;-76
2022/01/09 07:45:06;;;;;;;;;;;4.60;99.90;;;;;;5047816;28;20258;-76
2022/01/09 07:47:32;;;;;;;;;;;4.70;99.90;;;;;;5047867;28;19955;-75
2022/01/09 07:49:58;;;;;;;;;;;4.80;99.90;;;;;;5047606;28;19909;-76
2022/01/09 07:52:23;;;;;;;;;;;4.80;99.90;;;;;;5029474;28;19920;-75
2022/01/09 07:54:49;;;;;;;;;;;4.90;99.90;;;;;;5047658;28;20276;-75
2022/01/09 07:57:14;;;;;;;;;;;4.80;99.90;;;;;;5047634;28;19909;-76
2022/01/09 07:59:40;;;;;;;;;;;4.90;99.90;;;;;;5047596;28;19917;-75
2022/01/09 08:02:06;;;;;;;;;;;4.80;99.90;;;;;;5047288;28;19916;-75
2022/01/09 08:04:32;;;;;;;;;;;4.80;99.90;;;;;;5047537;28;20310;-75
2022/01/09 08:06:57;;;;;;;;;;;4.70;99.90;;;;;;5046640;28;19905;-75
2022/01/09 08:09:23;;;;;;;;;;;4.70;99.90;;;;;;5046907;28;20019;-75
2022/01/09 08:11:49;;;;;;;;;;;4.50;99.90;;;;;;5046854;28;19909;-75
2022/01/09 08:14:14;;;;;;;;;;;4.40;99.90;;;;;;5046631;28;19943;-75
2022/01/09 08:16:40;;;;;;;;;;;4.50;99.90;;;;;;5046805;28;20052;-75
2022/01/09 08:19:05;;;;;;;;;;;4.40;99.90;;;;;;5046867;28;19948;-75
2022/01/09 08:21:31;;;;;;;;;;;4.40;99.90;;;;;;5046392;28;19909;-75
2022/01/09 08:23:56;;;;;;;;;;;4.50;99.90;;;;;;5046196;28;19955;-75
2022/01/09 08:26:22;;;;;;;;;;;4.60;99.90;;;;;;5046323;28;20283;-75
2022/01/09 08:28:48;;;;;;;;;;;4.60;99.90;;;;;;5046550;28;19909;-75
2022/01/09 08:31:19;;;;;;;;;;;4.50;99.90;;;;;;5046505;28;19991;-75
2022/01/09 08:33:45;;;;;;;;;;;4.60;99.90;;;;;;5046353;28;19923;-75
2022/01/09 08:36:11;;;;;;;;;;;4.60;99.90;;;;;;5028451;28;20000;-75
2022/01/09 08:38:36;;;;;;;;;;;4.60;99.90;;;;;;5046088;28;19948;-75
2022/01/09 08:41:02;;;;;;;;;;;4.50;99.90;;;;;;5028439;28;19912;-75
2022/01/09 08:43:28;;;;;;;;;;;4.50;99.90;;;;;;5011860;28;19916;-75
2022/01/09 08:45:53;;;;;;;;;;;4.50;99.90;;;;;;5028459;28;19913;-75
2022/01/09 08:48:19;;;;;;;;;;;4.50;99.90;;;;;;5046183;28;19909;-75
2022/01/09 08:50:44;;;;;;;;;;;4.60;99.90;;;;;;5028134;28;19909;-75
2022/01/09 08:53:10;;;;;;;;;;;4.60;99.90;;;;;;5045464;28;19924;-75
2022/01/09 08:55:35;;;;;;;;;;;4.60;99.90;;;;;;5045867;28;19937;-76
2022/01/09 08:58:01;;;;;;;;;;;4.60;99.90;;;;;;5046039;28;19972;-75
2022/01/09 09:00:27;;;;;;;;;;;4.60;99.90;;;;;;5045696;28;19917;-75
2022/01/09 09:02:52;;;;;;;;;;;4.60;99.90;;;;;;5044408;28;19959;-76
2022/01/09 09:05:18;;;;;;;;;;;4.60;99.90;;;;;;5044438;28;19913;-76
2022/01/09 09:07:44;;;;;;;;;;;4.60;99.90;;;;;;5043372;28;19936;-76
2022/01/09 09:10:09;;;;;;;;;;;4.50;99.90;;;;;;5027450;28;19916;-76
2022/01/09 09:12:35;;;;;;;;;;;4.40;99.90;;;;;;5044899;28;19920;-75
2022/01/09 09:15:03;;;;;;;;;;;4.50;99.90;;;;;;5045033;28;19908;-76
2022/01/09 09:17:29;;;;;;;;;;;4.40;99.90;;;;;;5045592;28;20368;-76
2022/01/09 09:19:55;;;;;;;;;;;4.50;99.90;;;;;;5045528;28;19932;-75
2022/01/09 09:22:20;;;;;;;;;;;4.40;99.90;;;;;;5044883;28;19911;-76
2022/01/09 09:24:46;;;;;;;;;;;4.50;99.90;;;;;;5045467;28;19951;-76
2022/01/09 09:27:12;;;;;;;;;;;4.60;99.90;;;;;;5045175;28;19963;-76
2022/01/09 09:29:37;;;;;;;;;;;4.50;99.90;;;;;;5045545;28;19932;-76
2022/01/09 09:32:03;;;;;;;;;;;4.70;99.90;;;;;;5027381;28;19909;-75
2022/01/09 09:34:29;;;;;;;;;;;4.80;99.90;;;;;;5027741;28;19924;-76
2022/01/09 09:36:55;;;;;;;;;;;4.90;99.90;;;;;;5044814;28;19913;-77
2022/01/09 09:39:21;;;;;;;;;;;4.90;99.90;;;;;;5045224;28;20007;-75
2022/01/09 09:41:46;;;;;;;;;;;4.90;99.90;;;;;;5027303;28;19909;-76
2022/01/09 09:44:12;;;;;;;;;;;5.00;99.90;;;;;;5045176;28;19912;-76
2022/01/09 09:46:39;;;;;;;;;;;5.10;99.90;;;;;;5027426;28;19909;-77
2022/01/09 09:49:05;;;;;;;;;;;5.20;99.90;;;;;;5045104;28;19952;-76
2022/01/09 09:51:30;;;;;;;;;;;5.20;99.90;;;;;;5044873;28;19909;-76
2022/01/09 09:53:56;;;;;;;;;;;5.20;99.90;;;;;;5044578;28;19917;-77
2022/01/09 09:56:22;;;;;;;;;;;5.20;99.90;;;;;;5049413;28;19921;-76
2022/01/09 09:58:51;;;;;;;;;;;5.20;99.90;;;;;;5065248;28;19948;-75
2022/01/09 10:01:24;;;;;;;;;;;5.10;99.90;;;;;;5048069;28;19932;-75
2022/01/09 10:03:57;;;;;;;;;;;5.20;99.90;;;;;;5047263;28;19909;-75
2022/01/09 10:06:39;;;;;;;;;;;5.20;99.90;;;;;;5064773;28;19913;-76
2022/01/09 10:09:09;;;;;;;;;;;5.20;99.90;;;;;;5063465;28;20394;-76
2022/01/09 10:11:50;;;;;;;;;;;5.30;99.90;;;;;;5064898;28;19940;-76
2022/01/09 10:14:23;;;;;;;;;;;5.40;99.90;;;;;;5064686;28;19924;-76
2022/01/09 10:17:08;;;;;;;;;;;5.40;99.90;;;;;;5064913;28;19919;-75
2022/01/09 10:19:44;;;;;;;;;;;5.30;99.90;;;;;;5063477;28;19912;-76
2022/01/09 10:22:22;;;;;;;;;;;5.30;99.90;;;;;;5063132;28;20383;-75
2022/01/09 10:24:48;;;;;;;;;;;5.30;99.90;;;;;;5064613;28;19920;-75
2022/01/09 10:27:27;;;;;;;;;;;5.40;99.90;;;;;;5067347;28;19966;-75
2022/01/09 10:29:56;;;;;;;;;;;5.50;99.90;;;;;;5067317;28;19935;-75
2022/01/09 10:32:29;;;;;;;;;;;5.80;99.90;;;;;;5068348;28;19908;-76
2022/01/09 10:35:07;;;;;;;;;;;5.90;99.90;;;;;;5068464;28;20444;-75
2022/01/09 10:37:32;;;;;;;;;;;5.90;99.90;;;;;;5057393;28;19917;-76
2022/01/09 10:39:59;;;;;;;;;;;5.80;99.90;;;;;;4980344;28;20272;-76
2022/01/09 10:42:24;;;;;;;;;;;5.80;99.90;;;;;;5064253;28;20007;-76
2022/01/09 10:44:50;;;;;;;;;;;5.80;99.90;;;;;;5066312;28;20356;-76
2022/01/09 10:47:16;;;;;;;;;;;5.80;99.90;;;;;;5048242;28;19908;-76
2022/01/09 10:49:49;;;;;;;;;;;5.80;99.90;;;;;;5046960;28;19932;-77
2022/01/09 10:52:16;;;;;;;;;;;5.80;99.90;;;;;;5051884;28;19909;-76
2022/01/09 10:54:48;;;;;;;;;;;5.80;99.90;;;;;;5066835;28;19939;-76
2022/01/09 10:57:15;;;;;;;;;;;5.70;99.90;;;;;;5031335;28;19928;-76
2022/01/09 10:59:40;;;;;;;;;;;5.60;99.90;;;;;;5066907;28;20361;-76
2022/01/09 11:02:06;;;;;;;;;;;5.70;99.90;;;;;;5048657;28;19909;-76
2022/01/09 11:04:32;;;;;;;;;;;5.70;99.90;;;;;;5066340;28;19912;-76
2022/01/09 11:06:58;;;;;;;;;;;5.80;99.90;;;;;;5065619;28;20384;-77
2022/01/09 11:09:26;;;;;;;;;;;5.80;99.90;;;;;;5049459;28;19909;-73
2022/01/09 11:11:52;;;;;;;;;;;5.80;99.90;;;;;;5066199;28;19917;-76
2022/01/09 11:14:20;;;;;;;;;;;5.90;99.90;;;;;;5048029;28;19924;-76
2022/01/09 11:16:51;;;;;;;;;;;6.00;99.90;;;;;;5065893;28;19909;-76
2022/01/09 11:19:18;;;;;;;;;;;6.00;99.90;;;;;;5049717;28;19908;-76
2022/01/09 11:22:07;;;;;;;;;;;6.00;99.90;;;;;;5063444;28;19915;-76
2022/01/09 11:24:32;;;;;;;;;;;6.00;99.90;;;;;;5066375;28;20115;-76
2022/01/09 11:27:16;;;;;;;;;;;6.00;99.90;;;;;;5030898;28;20056;-76
2022/01/09 11:30:00;;;;;;;;;;;6.10;99.90;;;;;;5047686;28;19996;-76
2022/01/09 11:32:43;;;;;;;;;;;6.10;99.90;;;;;;5066039;28;19913;-76
2022/01/09 11:35:28;;;;;;;;;;;6.20;99.90;;;;;;5047851;28;19913;-76
2022/01/09 11:37:53;;;;;;;;;;;6.20;99.90;;;;;;5064163;28;19998;-76
2022/01/09 11:40:22;;;;;;;;;;;6.40;99.90;;;;;;5047984;28;19905;-76
2022/01/09 11:43:06;;;;;;;;;;;6.60;99.90;;;;;;5030828;28;19966;-76
2022/01/09 11:45:41;;;;;;;;;;;6.70;99.90;;;;;;5031697;28;19920;-76
2022/01/09 11:48:07;;;;;;;;;;;6.80;99.90;;;;;;5028473;28;19972;-75
2022/01/09 11:50:33;;;;;;;;;;;6.70;99.90;;;;;;5048509;28;19913;-75
2022/01/09 11:52:59;;;;;;;;;;;6.60;99.90;;;;;;5069880;28;20065;-76
2022/01/09 11:55:47;;;;;;;;;;;6.50;99.90;;;;;;5070999;28;19913;-75
2022/01/09 11:58:15;;;;;;;;;;;6.40;99.90;;;;;;5045321;28;19935;-76
2022/01/09 12:00:42;;;;;;;;;;;6.30;99.90;;;;;;5025154;28;20346;-75
2022/01/09 12:03:26;;;;;;;;;;;6.40;99.90;;;;;;5049979;28;20015;-75
2022/01/09 12:06:02;;;;;;;;;;;6.50;99.90;;;;;;5053444;28;19958;-77
2022/01/09 12:08:47;;;;;;;;;;;6.40;99.90;;;;;;5039481;28;19955;-77
2022/01/09 12:11:13;;;;;;;;;;;6.40;99.90;;;;;;5047917;28;19913;-76
2022/01/09 12:13:40;;;;;;;;;;;6.30;99.90;;;;;;5052520;28;19940;-75
2022/01/09 12:16:07;;;;;;;;;;;6.10;99.90;;;;;;5050014;28;20007;-77
2022/01/09 12:18:40;;;;;;;;;;;6.20;99.90;;;;;;5047950;28;20332;-75
2022/01/09 12:21:09;;;;;;;;;;;6.30;99.90;;;;;;5053042;28;19966;-75
2022/01/09 12:23:38;;;;;;;;;;;6.50;99.90;;;;;;5030677;28;19931;-75
2022/01/09 12:26:03;;;;;;;;;;;6.50;99.90;;;;;;5051506;28;19948;-75
2022/01/09 12:28:37;;;;;;;;;;;6.40;99.90;;;;;;5046765;28;19920;-75
2022/01/09 12:31:03;;;;;;;;;;;6.30;99.90;;;;;;5045567;28;19935;-75
2022/01/09 12:33:31;;;;;;;;;;;6.40;99.90;;;;;;5026716;28;20363;-75
2022/01/09 12:36:23;;;;;;;;;;;6.40;99.90;;;;;;5068955;28;19913;-75
2022/01/09 12:38:55;;;;;;;;;;;6.50;99.90;;;;;;5066966;28;19912;-76
2022/01/09 12:41:22;;;;;;;;;;;6.60;99.90;;;;;;5067518;28;19908;-78
2022/01/09 12:43:49;;;;;;;;;;;6.60;99.90;;;;;;5064745;28;20356;-75
2022/01/09 12:46:21;;;;;;;;;;;6.50;99.90;;;;;;5067037;28;19931;-76
2022/01/09 12:49:00;;;;;;;;;;;6.50;99.90;;;;;;5045197;28;19917;-75
2022/01/09 12:51:26;;;;;;;;;;;6.60;99.90;;;;;;5055485;28;19959;-74
2022/01/09 12:53:55;;;;;;;;;;;6.70;99.90;;;;;;5058726;28;19979;-75
2022/01/09 12:56:21;;;;;;;;;;;6.60;99.90;;;;;;5061372;28;19943;-75
2022/01/09 12:58:48;;;;;;;;;;;6.90;99.90;;;;;;5036484;28;19908;-76
2022/01/09 13:01:22;;;;;;;;;;;6.90;99.90;;;;;;5069833;28;19915;-74
2022/01/09 13:03:49;;;;;;;;;;;6.80;99.90;;;;;;5046531;28;19912;-75
2022/01/09 13:06:20;;;;;;;;;;;6.60;99.90;;;;;;5046709;28;19921;-76
2022/01/09 13:08:46;;;;;;;;;;;6.50;99.90;;;;;;5063404;28;19908;-75
2022/01/09 13:11:13;;;;;;;;;;;6.40;99.90;;;;;;5046228;28;19948;-76
2022/01/09 13:13:40;;;;;;;;;;;6.40;99.90;;;;;;5063763;28;19943;-76
2022/01/09 13:16:13;;;;;;;;;;;6.40;99.90;;;;;;5046482;28;19919;-76
2022/01/09 13:18:51;;;;;;;;;;;6.40;99.90;;;;;;5045074;28;19908;-76
2022/01/09 13:21:28;;;;;;;;;;;6.40;99.90;;;;;;5064304;28;19970;-75
2022/01/09 13:23:56;;;;;;;;;;;6.40;99.90;;;;;;5064024;28;19947;-75
2022/01/09 13:26:25;;;;;;;;;;;6.50;99.90;;;;;;5064333;28;19909;-75
2022/01/09 13:28:54;;;;;;;;;;;6.50;99.90;;;;;;5035376;28;19971;-75
2022/01/09 13:31:21;;;;;;;;;;;6.50;99.90;;;;;;5060079;28;19913;-76
2022/01/09 13:33:51;;;;;;;;;;;6.60;99.90;;;;;;5063756;28;19923;-75
2022/01/09 13:36:36;;;;;;;;;;;6.50;99.90;;;;;;5065430;28;19915;-75
2022/01/09 13:39:04;;;;;;;;;;;6.50;99.90;;;;;;5045738;28;20326;-75
2022/01/09 13:41:31;;;;;;;;;;;6.60;99.90;;;;;;5035843;28;19935;-75
2022/01/09 13:43:57;;;;;;;;;;;6.80;99.90;;;;;;5026710;28;19909;-75
2022/01/09 13:46:23;;;;;;;;;;;6.80;99.90;;;;;;5060002;28;19923;-75
2022/01/09 13:48:50;;;;;;;;;;;7.00;99.90;;;;;;5046562;28;19962;-74
2022/01/09 13:51:16;;;;;;;;;;;7.00;99.90;;;;;;5052321;28;19916;-75
2022/01/09 13:54:00;;;;;;;;;;;6.90;99.90;;;;;;5055004;28;19917;-75
2022/01/09 13:56:26;;;;;;;;;;;6.80;99.90;;;;;;5063555;28;19922;-74
2022/01/09 13:58:54;;;;;;;;;;;6.60;99.90;;;;;;5064978;28;19908;-74
2022/01/09 14:01:39;;;;;;;;;;;5.90;99.90;;;;;;5066678;28;19916;-74
2022/01/09 14:04:11;;;;;;;;;;;5.40;99.90;;;;;;5069092;28;19916;-79
2022/01/09 14:06:37;;;;;;;;;;;5.20;99.90;;;;;;5069075;28;19919;-75
2022/01/09 14:09:02;;;;;;;;;;;5.10;99.90;;;;;;5069154;28;19940;-74
2022/01/09 14:11:28;;;;;;;;;;;5.20;99.90;;;;;;5068781;28;19955;-74
2022/01/09 14:13:53;;;;;;;;;;;5.10;99.90;;;;;;5068763;28;19939;-75
2022/01/09 14:16:19;;;;;;;;;;;5.00;99.90;;;;;;5069007;28;20268;-78
2022/01/09 14:18:53;;;;;;;;;;;5.00;99.90;;;;;;5068643;28;19908;-74
2022/01/09 14:21:19;;;;;;;;;;;4.80;99.90;;;;;;5034332;28;19908;-76
2022/01/09 14:23:47;;;;;;;;;;;4.70;99.90;;;;;;5068706;28;19966;-74
2022/01/09 14:26:13;;;;;;;;;;;4.60;99.90;;;;;;5068674;28;19954;-74
2022/01/09 14:28:40;;;;;;;;;;;4.70;99.90;;;;;;5068521;28;19920;-74
2022/01/09 14:31:07;;;;;;;;;;;4.70;99.90;;;;;;5068705;28;19931;-74
2022/01/09 14:33:33;;;;;;;;;;;4.70;99.90;;;;;;5067916;28;19920;-74
2022/01/09 14:36:12;;;;;;;;;;;4.70;99.90;;;;;;5068663;28;20410;-73